sensor_id;sensor_type;location;lat;lon;timestamp;P1;durP1;ratioP1;P2;durP2;ratioP2
11034;SDS011;5571;48.110;-1.706;2022-12-31T00:01:06;24.07;;;4.60;;
11034;SDS011;5571;48.110;-1.706;2022-12-31T00:03:34;25.13;;;4.60;;
11034;SDS011;5571;48.110;-1.706;2022-12-31T00:06:00;19.27;;;3.83;;
11034;SDS011;5571;48.110;-1.706;2022-12-31T00:08:35;20.10;;;4.33;;
11034;SDS011;5571;48.110;-1.706;2022-12-31T00:11:01;24.60;;;3.77;;
11034;SDS011;5571;48.110;-1.706;2022-12-31T00:13:26;14.00;;;3.57;;
11034;SDS011;5571;48.110;-1.706;2022-12-31T00:15:52;19.90;;;3.53;;
11034;SDS011;5571;48.110;-1.706;2022-12-31T00:18:18;15.97;;;3.10;;
11034;SDS011;5571;48.110;-1.706;2022-12-31T00:20:43;15.00;;;3.30;;
11034;SDS011;5571;48.110;-1.706;2022-12-31T00:23:09;21.07;;;3.17;;
11034;SDS011;5571;48.110;-1.706;2022-12-31T00:25:35;17.87;;;3.37;;
11034;SDS011;5571;48.110;-1.706;2022-12-31T00:28:02;21.00;;;4.13;;
11034;SDS011;5571;48.110;-1.706;2022-12-31T00:30:28;14.37;;;3.00;;
11034;SDS011;5571;48.110;-1.706;2022-12-31T00:32:53;15.67;;;3.43;;
11034;SDS011;5571;48.110;-1.706;2022-12-31T00:35:19;18.97;;;3.80;;
11034;SDS011;5571;48.110;-1.706;2022-12-31T00:37:45;22.33;;;4.17;;
11034;SDS011;5571;48.110;-1.706;2022-12-31T00:40:10;17.10;;;3.53;;
11034;SDS011;5571;48.110;-1.706;2022-12-31T00:42:36;21.00;;;3.73;;
11034;SDS011;5571;48.110;-1.706;2022-12-31T00:45:02;22.53;;;4.40;;
11034;SDS011;5571;48.110;-1.706;2022-12-31T00:47:27;23.90;;;3.80;;
11034;SDS011;5571;48.110;-1.706;2022-12-31T00:49:53;20.70;;;3.67;;
11034;SDS011;5571;48.110;-1.706;2022-12-31T00:52:19;18.53;;;4.20;;
11034;SDS011;5571;48.110;-1.706;2022-12-31T00:54:45;18.63;;;4.07;;
11034;SDS011;5571;48.110;-1.706;2022-12-31T00:57:10;16.17;;;3.30;;
11034;SDS011;5571;48.110;-1.706;2022-12-31T00:59:36;14.80;;;3.03;;
11034;SDS011;5571;48.110;-1.706;2022-12-31T01:02:02;28.23;;;9.53;;
11034;SDS011;5571;48.110;-1.706;2022-12-31T01:04:27;19.77;;;4.37;;
11034;SDS011;5571;48.110;-1.706;2022-12-31T01:06:53;17.10;;;3.47;;
11034;SDS011;5571;48.110;-1.706;2022-12-31T01:09:18;17.57;;;3.63;;
11034;SDS011;5571;48.110;-1.706;2022-12-31T01:11:45;14.70;;;3.20;;
11034;SDS011;5571;48.110;-1.706;2022-12-31T01:14:14;13.27;;;3.27;;
11034;SDS011;5571;48.110;-1.706;2022-12-31T01:16:46;18.57;;;3.50;;
11034;SDS011;5571;48.110;-1.706;2022-12-31T01:19:14;23.80;;;6.17;;
11034;SDS011;5571;48.110;-1.706;2022-12-31T01:21:48;19.70;;;3.70;;
11034;SDS011;5571;48.110;-1.706;2022-12-31T01:24:15;15.20;;;3.80;;
11034;SDS011;5571;48.110;-1.706;2022-12-31T01:26:41;20.03;;;4.00;;
11034;SDS011;5571;48.110;-1.706;2022-12-31T01:29:10;22.07;;;3.53;;
11034;SDS011;5571;48.110;-1.706;2022-12-31T01:31:37;21.77;;;3.80;;
11034;SDS011;5571;48.110;-1.706;2022-12-31T01:34:03;16.30;;;3.77;;
11034;SDS011;5571;48.110;-1.706;2022-12-31T01:36:30;15.87;;;3.53;;
11034;SDS011;5571;48.110;-1.706;2022-12-31T01:38:58;16.33;;;3.80;;
11034;SDS011;5571;48.110;-1.706;2022-12-31T01:41:33;16.13;;;3.13;;
11034;SDS011;5571;48.110;-1.706;2022-12-31T01:46:46;14.73;;;3.00;;
11034;SDS011;5571;48.110;-1.706;2022-12-31T01:49:18;14.27;;;3.20;;
11034;SDS011;5571;48.110;-1.706;2022-12-31T01:51:49;13.73;;;3.03;;
11034;SDS011;5571;48.110;-1.706;2022-12-31T01:54:23;13.67;;;2.70;;
11034;SDS011;5571;48.110;-1.706;2022-12-31T01:56:50;15.37;;;3.13;;
11034;SDS011;5571;48.110;-1.706;2022-12-31T01:59:17;11.17;;;2.77;;
11034;SDS011;5571;48.110;-1.706;2022-12-31T02:01:45;12.70;;;3.27;;
11034;SDS011;5571;48.110;-1.706;2022-12-31T02:04:12;12.73;;;2.90;;
11034;SDS011;5571;48.110;-1.706;2022-12-31T02:06:42;13.63;;;2.57;;
11034;SDS011;5571;48.110;-1.706;2022-12-31T02:09:12;16.23;;;2.80;;
11034;SDS011;5571;48.110;-1.706;2022-12-31T02:11:37;16.57;;;3.37;;
11034;SDS011;5571;48.110;-1.706;2022-12-31T02:14:26;10.10;;;3.17;;
11034;SDS011;5571;48.110;-1.706;2022-12-31T02:30:20;13.07;;;3.50;;
11034;SDS011;5571;48.110;-1.706;2022-12-31T02:38:26;15.17;;;3.57;;
11034;SDS011;5571;48.110;-1.706;2022-12-31T02:40:55;16.10;;;4.13;;
11034;SDS011;5571;48.110;-1.706;2022-12-31T02:43:22;11.40;;;3.57;;
11034;SDS011;5571;48.110;-1.706;2022-12-31T02:48:44;14.13;;;3.03;;
11034;SDS011;5571;48.110;-1.706;2022-12-31T02:57:18;17.03;;;3.63;;
11034;SDS011;5571;48.110;-1.706;2022-12-31T03:02:42;17.73;;;3.63;;
11034;SDS011;5571;48.110;-1.706;2022-12-31T03:05:09;18.23;;;4.07;;
11034;SDS011;5571;48.110;-1.706;2022-12-31T03:07:38;18.97;;;3.83;;
11034;SDS011;5571;48.110;-1.706;2022-12-31T03:10:05;15.37;;;3.00;;
11034;SDS011;5571;48.110;-1.706;2022-12-31T03:12:31;15.23;;;3.40;;
11034;SDS011;5571;48.110;-1.706;2022-12-31T03:17:49;13.93;;;3.07;;
11034;SDS011;5571;48.110;-1.706;2022-12-31T03:20:39;14.57;;;3.23;;
11034;SDS011;5571;48.110;-1.706;2022-12-31T03:25:53;11.03;;;3.33;;
11034;SDS011;5571;48.110;-1.706;2022-12-31T03:28:21;13.57;;;3.13;;
11034;SDS011;5571;48.110;-1.706;2022-12-31T03:30:50;13.57;;;3.60;;
11034;SDS011;5571;48.110;-1.706;2022-12-31T03:33:19;10.67;;;2.57;;
11034;SDS011;5571;48.110;-1.706;2022-12-31T03:35:46;11.07;;;3.00;;
11034;SDS011;5571;48.110;-1.706;2022-12-31T03:38:12;13.93;;;2.97;;
11034;SDS011;5571;48.110;-1.706;2022-12-31T03:40:39;12.60;;;3.53;;
11034;SDS011;5571;48.110;-1.706;2022-12-31T03:43:07;10.17;;;2.73;;
11034;SDS011;5571;48.110;-1.706;2022-12-31T03:45:34;11.17;;;2.67;;
11034;SDS011;5571;48.110;-1.706;2022-12-31T03:48:00;16.63;;;2.40;;
11034;SDS011;5571;48.110;-1.706;2022-12-31T03:50:26;11.43;;;3.10;;
11034;SDS011;5571;48.110;-1.706;2022-12-31T03:52:53;13.93;;;2.90;;
11034;SDS011;5571;48.110;-1.706;2022-12-31T03:55:18;11.43;;;2.87;;
11034;SDS011;5571;48.110;-1.706;2022-12-31T03:57:44;11.57;;;2.80;;
11034;SDS011;5571;48.110;-1.706;2022-12-31T04:00:13;8.23;;;2.80;;
11034;SDS011;5571;48.110;-1.706;2022-12-31T04:02:42;13.37;;;3.60;;
11034;SDS011;5571;48.110;-1.706;2022-12-31T04:05:07;13.27;;;3.63;;
11034;SDS011;5571;48.110;-1.706;2022-12-31T04:07:33;12.13;;;2.90;;
11034;SDS011;5571;48.110;-1.706;2022-12-31T04:09:59;9.77;;;3.00;;
11034;SDS011;5571;48.110;-1.706;2022-12-31T04:12:25;16.03;;;3.40;;
11034;SDS011;5571;48.110;-1.706;2022-12-31T04:14:50;10.40;;;2.93;;
11034;SDS011;5571;48.110;-1.706;2022-12-31T04:17:16;11.90;;;3.10;;
11034;SDS011;5571;48.110;-1.706;2022-12-31T04:19:41;13.27;;;3.27;;
11034;SDS011;5571;48.110;-1.706;2022-12-31T04:22:07;18.83;;;3.57;;
11034;SDS011;5571;48.110;-1.706;2022-12-31T04:24:33;11.27;;;2.70;;
11034;SDS011;5571;48.110;-1.706;2022-12-31T04:26:58;11.97;;;2.90;;
11034;SDS011;5571;48.110;-1.706;2022-12-31T04:29:24;12.90;;;2.73;;
11034;SDS011;5571;48.110;-1.706;2022-12-31T04:31:50;17.57;;;3.53;;
11034;SDS011;5571;48.110;-1.706;2022-12-31T04:34:15;16.80;;;3.63;;
11034;SDS011;5571;48.110;-1.706;2022-12-31T04:36:41;16.53;;;3.73;;
11034;SDS011;5571;48.110;-1.706;2022-12-31T04:39:07;10.23;;;3.13;;
11034;SDS011;5571;48.110;-1.706;2022-12-31T04:41:33;19.90;;;3.13;;
11034;SDS011;5571;48.110;-1.706;2022-12-31T04:43:58;16.67;;;4.07;;
11034;SDS011;5571;48.110;-1.706;2022-12-31T04:46:25;15.73;;;3.60;;
11034;SDS011;5571;48.110;-1.706;2022-12-31T04:48:53;13.60;;;3.73;;
11034;SDS011;5571;48.110;-1.706;2022-12-31T04:51:19;16.93;;;3.83;;
11034;SDS011;5571;48.110;-1.706;2022-12-31T04:53:46;14.37;;;3.80;;
11034;SDS011;5571;48.110;-1.706;2022-12-31T04:56:11;19.40;;;3.73;;
11034;SDS011;5571;48.110;-1.706;2022-12-31T04:58:38;21.97;;;3.67;;
11034;SDS011;5571;48.110;-1.706;2022-12-31T05:01:04;17.67;;;4.57;;
11034;SDS011;5571;48.110;-1.706;2022-12-31T05:03:31;19.20;;;4.13;;
11034;SDS011;5571;48.110;-1.706;2022-12-31T05:06:03;22.23;;;4.70;;
11034;SDS011;5571;48.110;-1.706;2022-12-31T05:08:31;21.63;;;4.37;;
11034;SDS011;5571;48.110;-1.706;2022-12-31T05:10:57;20.83;;;4.27;;
11034;SDS011;5571;48.110;-1.706;2022-12-31T05:13:23;24.87;;;4.07;;
11034;SDS011;5571;48.110;-1.706;2022-12-31T05:15:49;17.73;;;4.37;;
11034;SDS011;5571;48.110;-1.706;2022-12-31T05:18:14;18.37;;;4.20;;
11034;SDS011;5571;48.110;-1.706;2022-12-31T05:20:40;18.37;;;4.53;;
11034;SDS011;5571;48.110;-1.706;2022-12-31T05:23:06;22.17;;;4.73;;
11034;SDS011;5571;48.110;-1.706;2022-12-31T05:25:32;20.47;;;4.13;;
11034;SDS011;5571;48.110;-1.706;2022-12-31T05:27:58;20.03;;;4.80;;
11034;SDS011;5571;48.110;-1.706;2022-12-31T05:30:23;21.87;;;4.60;;
11034;SDS011;5571;48.110;-1.706;2022-12-31T05:32:49;23.83;;;5.30;;
11034;SDS011;5571;48.110;-1.706;2022-12-31T05:35:15;19.60;;;4.00;;
11034;SDS011;5571;48.110;-1.706;2022-12-31T05:37:41;22.63;;;4.13;;
11034;SDS011;5571;48.110;-1.706;2022-12-31T05:40:07;19.73;;;4.70;;
11034;SDS011;5571;48.110;-1.706;2022-12-31T05:42:34;15.90;;;4.57;;
11034;SDS011;5571;48.110;-1.706;2022-12-31T05:44:59;23.27;;;4.90;;
11034;SDS011;5571;48.110;-1.706;2022-12-31T05:47:25;23.63;;;4.47;;
11034;SDS011;5571;48.110;-1.706;2022-12-31T05:49:51;26.20;;;5.03;;
11034;SDS011;5571;48.110;-1.706;2022-12-31T05:52:17;22.67;;;4.80;;
11034;SDS011;5571;48.110;-1.706;2022-12-31T05:54:43;20.93;;;4.47;;
11034;SDS011;5571;48.110;-1.706;2022-12-31T05:57:08;18.07;;;4.50;;
11034;SDS011;5571;48.110;-1.706;2022-12-31T05:59:34;18.33;;;4.00;;
11034;SDS011;5571;48.110;-1.706;2022-12-31T06:02:00;25.13;;;5.43;;
11034;SDS011;5571;48.110;-1.706;2022-12-31T06:04:26;17.17;;;3.90;;
11034;SDS011;5571;48.110;-1.706;2022-12-31T06:06:51;18.73;;;4.57;;
11034;SDS011;5571;48.110;-1.706;2022-12-31T06:09:17;21.30;;;4.63;;
11034;SDS011;5571;48.110;-1.706;2022-12-31T06:11:43;20.00;;;4.50;;
11034;SDS011;5571;48.110;-1.706;2022-12-31T06:14:09;20.13;;;4.17;;
11034;SDS011;5571;48.110;-1.706;2022-12-31T06:16:35;21.30;;;4.73;;
11034;SDS011;5571;48.110;-1.706;2022-12-31T06:19:01;20.73;;;4.80;;
11034;SDS011;5571;48.110;-1.706;2022-12-31T06:21:28;22.40;;;4.30;;
11034;SDS011;5571;48.110;-1.706;2022-12-31T06:23:54;19.63;;;4.50;;
11034;SDS011;5571;48.110;-1.706;2022-12-31T06:26:20;16.13;;;3.60;;
11034;SDS011;5571;48.110;-1.706;2022-12-31T06:28:45;18.57;;;3.73;;
11034;SDS011;5571;48.110;-1.706;2022-12-31T06:31:12;20.83;;;3.73;;
11034;SDS011;5571;48.110;-1.706;2022-12-31T06:33:39;14.77;;;3.83;;
11034;SDS011;5571;48.110;-1.706;2022-12-31T06:36:06;14.50;;;3.23;;
11034;SDS011;5571;48.110;-1.706;2022-12-31T06:38:34;9.27;;;3.30;;
11034;SDS011;5571;48.110;-1.706;2022-12-31T06:41:04;12.83;;;3.57;;
11034;SDS011;5571;48.110;-1.706;2022-12-31T06:43:31;15.37;;;3.43;;
11034;SDS011;5571;48.110;-1.706;2022-12-31T06:46:01;18.93;;;4.00;;
11034;SDS011;5571;48.110;-1.706;2022-12-31T06:48:28;17.00;;;3.97;;
11034;SDS011;5571;48.110;-1.706;2022-12-31T06:50:53;15.67;;;3.60;;
11034;SDS011;5571;48.110;-1.706;2022-12-31T06:53:19;18.83;;;4.00;;
11034;SDS011;5571;48.110;-1.706;2022-12-31T06:55:46;17.73;;;3.60;;
11034;SDS011;5571;48.110;-1.706;2022-12-31T06:58:13;14.37;;;3.57;;
11034;SDS011;5571;48.110;-1.706;2022-12-31T07:00:40;16.87;;;4.13;;
11034;SDS011;5571;48.110;-1.706;2022-12-31T07:03:49;21.73;;;3.80;;
11034;SDS011;5571;48.110;-1.706;2022-12-31T07:06:46;13.30;;;3.70;;
11034;SDS011;5571;48.110;-1.706;2022-12-31T07:14:36;17.80;;;3.70;;
11034;SDS011;5571;48.110;-1.706;2022-12-31T07:20:04;18.53;;;3.73;;
11034;SDS011;5571;48.110;-1.706;2022-12-31T07:22:31;16.80;;;4.03;;
11034;SDS011;5571;48.110;-1.706;2022-12-31T07:24:57;21.57;;;3.80;;
11034;SDS011;5571;48.110;-1.706;2022-12-31T07:38:31;15.73;;;4.00;;
11034;SDS011;5571;48.110;-1.706;2022-12-31T07:46:27;20.70;;;3.70;;
11034;SDS011;5571;48.110;-1.706;2022-12-31T07:49:14;17.93;;;4.43;;
11034;SDS011;5571;48.110;-1.706;2022-12-31T07:51:40;21.27;;;3.83;;
11034;SDS011;5571;48.110;-1.706;2022-12-31T07:54:06;20.03;;;3.87;;
11034;SDS011;5571;48.110;-1.706;2022-12-31T07:56:31;17.70;;;3.20;;
11034;SDS011;5571;48.110;-1.706;2022-12-31T08:01:30;23.00;;;4.13;;
11034;SDS011;5571;48.110;-1.706;2022-12-31T08:04:42;24.80;;;4.33;;
11034;SDS011;5571;48.110;-1.706;2022-12-31T08:10:07;16.87;;;3.60;;
11034;SDS011;5571;48.110;-1.706;2022-12-31T08:12:43;16.13;;;3.03;;
11034;SDS011;5571;48.110;-1.706;2022-12-31T08:15:12;19.13;;;3.73;;
11034;SDS011;5571;48.110;-1.706;2022-12-31T08:17:39;14.80;;;3.50;;
11034;SDS011;5571;48.110;-1.706;2022-12-31T08:20:05;19.70;;;3.47;;
11034;SDS011;5571;48.110;-1.706;2022-12-31T08:22:38;16.57;;;3.90;;
11034;SDS011;5571;48.110;-1.706;2022-12-31T08:25:26;13.33;;;3.40;;
11034;SDS011;5571;48.110;-1.706;2022-12-31T08:30:40;18.33;;;3.57;;
11034;SDS011;5571;48.110;-1.706;2022-12-31T08:41:43;18.00;;;3.80;;
11034;SDS011;5571;48.110;-1.706;2022-12-31T08:49:27;16.97;;;3.50;;
11034;SDS011;5571;48.110;-1.706;2022-12-31T08:51:54;15.53;;;3.83;;
11034;SDS011;5571;48.110;-1.706;2022-12-31T08:54:21;19.33;;;3.43;;
11034;SDS011;5571;48.110;-1.706;2022-12-31T08:59:47;18.10;;;3.70;;
11034;SDS011;5571;48.110;-1.706;2022-12-31T09:08:01;16.53;;;3.30;;
11034;SDS011;5571;48.110;-1.706;2022-12-31T09:10:52;24.93;;;3.87;;
11034;SDS011;5571;48.110;-1.706;2022-12-31T09:18:52;18.67;;;3.77;;
11034;SDS011;5571;48.110;-1.706;2022-12-31T09:21:17;18.10;;;3.30;;
11034;SDS011;5571;48.110;-1.706;2022-12-31T09:23:43;15.77;;;3.60;;
11034;SDS011;5571;48.110;-1.706;2022-12-31T09:28:47;22.80;;;4.53;;
11034;SDS011;5571;48.110;-1.706;2022-12-31T09:36:27;14.13;;;3.63;;
11034;SDS011;5571;48.110;-1.706;2022-12-31T09:39:14;16.33;;;3.33;;
11034;SDS011;5571;48.110;-1.706;2022-12-31T09:58:41;17.83;;;4.17;;
11034;SDS011;5571;48.110;-1.706;2022-12-31T10:02:09;16.73;;;3.80;;
11034;SDS011;5571;48.110;-1.706;2022-12-31T10:04:47;19.97;;;3.87;;
11034;SDS011;5571;48.110;-1.706;2022-12-31T10:29:08;30.93;;;4.67;;
11034;SDS011;5571;48.110;-1.706;2022-12-31T10:34:48;25.30;;;4.70;;
11034;SDS011;5571;48.110;-1.706;2022-12-31T10:37:19;22.50;;;4.30;;
11034;SDS011;5571;48.110;-1.706;2022-12-31T10:39:52;20.07;;;4.40;;
11034;SDS011;5571;48.110;-1.706;2022-12-31T10:42:47;17.30;;;3.83;;
11034;SDS011;5571;48.110;-1.706;2022-12-31T11:12:07;20.97;;;4.47;;
11034;SDS011;5571;48.110;-1.706;2022-12-31T11:15:34;19.43;;;4.17;;
11034;SDS011;5571;48.110;-1.706;2022-12-31T11:20:33;21.03;;;4.20;;
11034;SDS011;5571;48.110;-1.706;2022-12-31T11:31:10;18.37;;;3.90;;
11034;SDS011;5571;48.110;-1.706;2022-12-31T11:42:58;20.80;;;5.13;;
11034;SDS011;5571;48.110;-1.706;2022-12-31T11:45:14;18.97;;;4.30;;
11034;SDS011;5571;48.110;-1.706;2022-12-31T11:56:16;22.00;;;5.10;;
11034;SDS011;5571;48.110;-1.706;2022-12-31T11:58:48;17.87;;;3.90;;
11034;SDS011;5571;48.110;-1.706;2022-12-31T12:03:57;22.90;;;4.43;;
11034;SDS011;5571;48.110;-1.706;2022-12-31T12:06:26;15.13;;;4.23;;
11034;SDS011;5571;48.110;-1.706;2022-12-31T12:08:54;17.73;;;3.97;;
11034;SDS011;5571;48.110;-1.706;2022-12-31T12:11:24;16.67;;;4.30;;
11034;SDS011;5571;48.110;-1.706;2022-12-31T12:13:51;19.37;;;4.80;;
11034;SDS011;5571;48.110;-1.706;2022-12-31T12:16:18;22.42;;;4.57;;
11034;SDS011;5571;48.110;-1.706;2022-12-31T12:18:50;16.98;;;4.05;;
11034;SDS011;5571;48.110;-1.706;2022-12-31T12:21:29;19.48;;;4.32;;
11034;SDS011;5571;48.110;-1.706;2022-12-31T12:23:57;12.07;;;3.63;;
11034;SDS011;5571;48.110;-1.706;2022-12-31T12:26:41;14.77;;;3.60;;
11034;SDS011;5571;48.110;-1.706;2022-12-31T12:29:16;18.48;;;4.15;;
11034;SDS011;5571;48.110;-1.706;2022-12-31T12:31:53;15.33;;;3.50;;
11034;SDS011;5571;48.110;-1.706;2022-12-31T12:34:39;18.90;;;4.35;;
11034;SDS011;5571;48.110;-1.706;2022-12-31T12:40:06;17.50;;;4.20;;
11034;SDS011;5571;48.110;-1.706;2022-12-31T12:42:53;13.60;;;3.60;;
11034;SDS011;5571;48.110;-1.706;2022-12-31T12:45:20;15.18;;;3.75;;
11034;SDS011;5571;48.110;-1.706;2022-12-31T12:48:14;17.47;;;3.93;;
11034;SDS011;5571;48.110;-1.706;2022-12-31T12:50:43;14.93;;;3.80;;
11034;SDS011;5571;48.110;-1.706;2022-12-31T13:01:28;21.00;;;4.17;;
11034;SDS011;5571;48.110;-1.706;2022-12-31T13:09:48;16.42;;;3.60;;
11034;SDS011;5571;48.110;-1.706;2022-12-31T13:23:04;15.45;;;3.65;;
11034;SDS011;5571;48.110;-1.706;2022-12-31T13:26:02;16.42;;;3.88;;
11034;SDS011;5571;48.110;-1.706;2022-12-31T13:28:32;16.48;;;3.10;;
11034;SDS011;5571;48.110;-1.706;2022-12-31T13:31:00;10.88;;;3.35;;
11034;SDS011;5571;48.110;-1.706;2022-12-31T13:33:35;15.18;;;3.58;;
11034;SDS011;5571;48.110;-1.706;2022-12-31T13:36:04;15.38;;;3.70;;
11034;SDS011;5571;48.110;-1.706;2022-12-31T13:38:40;14.18;;;3.38;;
11034;SDS011;5571;48.110;-1.706;2022-12-31T13:41:18;14.07;;;3.60;;
11034;SDS011;5571;48.110;-1.706;2022-12-31T13:46:49;13.67;;;3.70;;
11034;SDS011;5571;48.110;-1.706;2022-12-31T13:52:17;19.40;;;4.20;;
11034;SDS011;5571;48.110;-1.706;2022-12-31T13:55:10;15.77;;;3.95;;
11034;SDS011;5571;48.110;-1.706;2022-12-31T13:57:46;23.98;;;4.13;;
11034;SDS011;5571;48.110;-1.706;2022-12-31T14:00:16;15.60;;;3.80;;
11034;SDS011;5571;48.110;-1.706;2022-12-31T14:08:24;18.50;;;3.97;;
11034;SDS011;5571;48.110;-1.706;2022-12-31T14:10:59;19.27;;;4.30;;
11034;SDS011;5571;48.110;-1.706;2022-12-31T14:18:42;19.63;;;4.10;;
11034;SDS011;5571;48.110;-1.706;2022-12-31T14:21:13;20.30;;;4.53;;
11034;SDS011;5571;48.110;-1.706;2022-12-31T14:23:51;22.98;;;4.18;;
11034;SDS011;5571;48.110;-1.706;2022-12-31T14:26:32;18.58;;;4.22;;
11034;SDS011;5571;48.110;-1.706;2022-12-31T14:34:34;14.52;;;4.47;;
11034;SDS011;5571;48.110;-1.706;2022-12-31T14:50:53;18.60;;;4.53;;
11034;SDS011;5571;48.110;-1.706;2022-12-31T14:53:23;19.38;;;3.60;;
11034;SDS011;5571;48.110;-1.706;2022-12-31T14:56:04;15.50;;;4.00;;
11034;SDS011;5571;48.110;-1.706;2022-12-31T14:58:55;19.30;;;4.13;;
11034;SDS011;5571;48.110;-1.706;2022-12-31T15:01:22;16.20;;;4.25;;
11034;SDS011;5571;48.110;-1.706;2022-12-31T15:03:50;21.77;;;3.92;;
11034;SDS011;5571;48.110;-1.706;2022-12-31T15:08:48;16.40;;;3.50;;
11034;SDS011;5571;48.110;-1.706;2022-12-31T15:17:22;19.25;;;3.90;;
11034;SDS011;5571;48.110;-1.706;2022-12-31T15:19:58;18.90;;;4.03;;
11034;SDS011;5571;48.110;-1.706;2022-12-31T15:25:00;20.15;;;4.28;;
11034;SDS011;5571;48.110;-1.706;2022-12-31T15:27:37;20.58;;;3.97;;
11034;SDS011;5571;48.110;-1.706;2022-12-31T15:30:06;17.35;;;3.90;;
11034;SDS011;5571;48.110;-1.706;2022-12-31T15:32:52;19.63;;;4.35;;
11034;SDS011;5571;48.110;-1.706;2022-12-31T15:40:43;17.55;;;3.83;;
11034;SDS011;5571;48.110;-1.706;2022-12-31T15:43:16;16.10;;;3.75;;
11034;SDS011;5571;48.110;-1.706;2022-12-31T15:45:47;15.38;;;3.90;;
11034;SDS011;5571;48.110;-1.706;2022-12-31T15:48:21;13.88;;;3.88;;
11034;SDS011;5571;48.110;-1.706;2022-12-31T15:50:56;20.52;;;3.92;;
11034;SDS011;5571;48.110;-1.706;2022-12-31T15:53:28;16.88;;;3.92;;
11034;SDS011;5571;48.110;-1.706;2022-12-31T15:56:06;20.92;;;4.18;;
11034;SDS011;5571;48.110;-1.706;2022-12-31T15:58:40;25.40;;;5.45;;
11034;SDS011;5571;48.110;-1.706;2022-12-31T16:01:23;14.32;;;3.90;;
11034;SDS011;5571;48.110;-1.706;2022-12-31T16:03:55;18.50;;;4.50;;
11034;SDS011;5571;48.110;-1.706;2022-12-31T16:06:24;20.65;;;3.92;;
11034;SDS011;5571;48.110;-1.706;2022-12-31T16:08:53;18.05;;;3.97;;
11034;SDS011;5571;48.110;-1.706;2022-12-31T16:11:19;13.73;;;4.18;;
11034;SDS011;5571;48.110;-1.706;2022-12-31T16:13:51;19.77;;;4.15;;
11034;SDS011;5571;48.110;-1.706;2022-12-31T16:16:26;27.23;;;4.55;;
11034;SDS011;5571;48.110;-1.706;2022-12-31T16:18:54;23.35;;;4.88;;
11034;SDS011;5571;48.110;-1.706;2022-12-31T16:21:37;18.35;;;4.28;;
11034;SDS011;5571;48.110;-1.706;2022-12-31T16:24:20;23.02;;;4.30;;
11034;SDS011;5571;48.110;-1.706;2022-12-31T16:26:54;18.80;;;4.55;;
11034;SDS011;5571;48.110;-1.706;2022-12-31T16:29:29;15.65;;;4.05;;
11034;SDS011;5571;48.110;-1.706;2022-12-31T16:31:55;16.55;;;4.07;;
11034;SDS011;5571;48.110;-1.706;2022-12-31T16:34:22;14.57;;;4.00;;
11034;SDS011;5571;48.110;-1.706;2022-12-31T16:36:56;18.25;;;4.50;;
11034;SDS011;5571;48.110;-1.706;2022-12-31T16:39:30;17.98;;;4.05;;
11034;SDS011;5571;48.110;-1.706;2022-12-31T16:42:06;18.63;;;4.25;;
11034;SDS011;5571;48.110;-1.706;2022-12-31T16:44:38;22.50;;;4.35;;
11034;SDS011;5571;48.110;-1.706;2022-12-31T16:47:05;17.95;;;4.85;;
11034;SDS011;5571;48.110;-1.706;2022-12-31T16:49:34;16.00;;;4.15;;
11034;SDS011;5571;48.110;-1.706;2022-12-31T16:52:03;19.75;;;4.97;;
11034;SDS011;5571;48.110;-1.706;2022-12-31T16:54:33;26.77;;;4.63;;
11034;SDS011;5571;48.110;-1.706;2022-12-31T16:57:01;17.95;;;4.43;;
11034;SDS011;5571;48.110;-1.706;2022-12-31T17:02:03;17.92;;;4.30;;
11034;SDS011;5571;48.110;-1.706;2022-12-31T17:04:47;23.13;;;4.53;;
11034;SDS011;5571;48.110;-1.706;2022-12-31T17:07:47;16.23;;;5.18;;
11034;SDS011;5571;48.110;-1.706;2022-12-31T17:12:32;22.85;;;4.45;;
11034;SDS011;5571;48.110;-1.706;2022-12-31T17:15:00;20.80;;;4.95;;
11034;SDS011;5571;48.110;-1.706;2022-12-31T17:17:28;24.67;;;5.43;;
11034;SDS011;5571;48.110;-1.706;2022-12-31T17:20:02;15.80;;;4.53;;
11034;SDS011;5571;48.110;-1.706;2022-12-31T17:22:40;17.83;;;4.80;;
11034;SDS011;5571;48.110;-1.706;2022-12-31T17:25:29;23.05;;;4.93;;
11034;SDS011;5571;48.110;-1.706;2022-12-31T17:28:02;17.45;;;4.60;;
11034;SDS011;5571;48.110;-1.706;2022-12-31T17:33:02;25.20;;;5.75;;
11034;SDS011;5571;48.110;-1.706;2022-12-31T17:36:34;23.58;;;4.50;;
11034;SDS011;5571;48.110;-1.706;2022-12-31T17:38:39;19.57;;;4.80;;
11034;SDS011;5571;48.110;-1.706;2022-12-31T17:43:34;19.48;;;4.65;;
11034;SDS011;5571;48.110;-1.706;2022-12-31T17:46:02;19.40;;;4.70;;
11034;SDS011;5571;48.110;-1.706;2022-12-31T17:48:42;19.83;;;4.90;;
11034;SDS011;5571;48.110;-1.706;2022-12-31T17:51:10;25.92;;;5.25;;
11034;SDS011;5571;48.110;-1.706;2022-12-31T17:53:35;24.00;;;5.28;;
11034;SDS011;5571;48.110;-1.706;2022-12-31T17:56:02;23.43;;;5.33;;
11034;SDS011;5571;48.110;-1.706;2022-12-31T17:58:31;23.90;;;5.15;;
11034;SDS011;5571;48.110;-1.706;2022-12-31T18:01:06;23.90;;;5.10;;
11034;SDS011;5571;48.110;-1.706;2022-12-31T18:03:32;21.67;;;4.53;;
11034;SDS011;5571;48.110;-1.706;2022-12-31T18:05:58;25.03;;;5.20;;
11034;SDS011;5571;48.110;-1.706;2022-12-31T18:08:24;28.77;;;6.00;;
11034;SDS011;5571;48.110;-1.706;2022-12-31T18:10:50;24.38;;;5.60;;
11034;SDS011;5571;48.110;-1.706;2022-12-31T18:13:19;25.77;;;5.63;;
11034;SDS011;5571;48.110;-1.706;2022-12-31T18:15:47;29.65;;;4.75;;
11034;SDS011;5571;48.110;-1.706;2022-12-31T18:20:50;24.90;;;6.03;;
11034;SDS011;5571;48.110;-1.706;2022-12-31T18:23:22;27.80;;;5.73;;
11034;SDS011;5571;48.110;-1.706;2022-12-31T18:25:54;21.83;;;4.88;;
11034;SDS011;5571;48.110;-1.706;2022-12-31T18:28:20;25.63;;;5.23;;
11034;SDS011;5571;48.110;-1.706;2022-12-31T18:30:46;37.70;;;6.07;;
11034;SDS011;5571;48.110;-1.706;2022-12-31T18:33:12;24.00;;;5.85;;
11034;SDS011;5571;48.110;-1.706;2022-12-31T18:35:43;24.73;;;5.27;;
11034;SDS011;5571;48.110;-1.706;2022-12-31T18:38:13;27.05;;;4.70;;
11034;SDS011;5571;48.110;-1.706;2022-12-31T18:40:40;35.08;;;5.78;;
11034;SDS011;5571;48.110;-1.706;2022-12-31T18:43:15;22.33;;;5.20;;
11034;SDS011;5571;48.110;-1.706;2022-12-31T18:45:42;21.17;;;5.27;;
11034;SDS011;5571;48.110;-1.706;2022-12-31T18:48:08;21.53;;;5.20;;
11034;SDS011;5571;48.110;-1.706;2022-12-31T18:50:34;24.77;;;6.07;;
11034;SDS011;5571;48.110;-1.706;2022-12-31T18:52:59;24.75;;;5.95;;
11034;SDS011;5571;48.110;-1.706;2022-12-31T18:56:11;34.80;;;5.80;;
11034;SDS011;5571;48.110;-1.706;2022-12-31T18:58:11;22.70;;;5.40;;
11034;SDS011;5571;48.110;-1.706;2022-12-31T19:00:37;32.37;;;6.07;;
11034;SDS011;5571;48.110;-1.706;2022-12-31T19:03:03;25.43;;;5.93;;
11034;SDS011;5571;48.110;-1.706;2022-12-31T19:05:32;23.33;;;5.60;;
11034;SDS011;5571;48.110;-1.706;2022-12-31T19:08:01;30.57;;;6.07;;
11034;SDS011;5571;48.110;-1.706;2022-12-31T19:10:26;34.87;;;6.33;;
11034;SDS011;5571;48.110;-1.706;2022-12-31T19:12:52;29.40;;;6.30;;
11034;SDS011;5571;48.110;-1.706;2022-12-31T19:15:38;30.33;;;6.00;;
11034;SDS011;5571;48.110;-1.706;2022-12-31T19:18:10;27.83;;;6.00;;
11034;SDS011;5571;48.110;-1.706;2022-12-31T19:20:36;29.03;;;6.10;;
11034;SDS011;5571;48.110;-1.706;2022-12-31T19:23:03;29.30;;;6.30;;
11034;SDS011;5571;48.110;-1.706;2022-12-31T19:25:32;29.20;;;6.33;;
11034;SDS011;5571;48.110;-1.706;2022-12-31T19:27:59;26.10;;;6.07;;
11034;SDS011;5571;48.110;-1.706;2022-12-31T19:30:27;32.37;;;6.60;;
11034;SDS011;5571;48.110;-1.706;2022-12-31T19:32:54;38.30;;;6.90;;
11034;SDS011;5571;48.110;-1.706;2022-12-31T19:35:20;34.27;;;7.13;;
11034;SDS011;5571;48.110;-1.706;2022-12-31T19:37:47;30.20;;;6.17;;
11034;SDS011;5571;48.110;-1.706;2022-12-31T19:40:15;36.10;;;7.23;;
11034;SDS011;5571;48.110;-1.706;2022-12-31T19:42:43;32.87;;;5.90;;
11034;SDS011;5571;48.110;-1.706;2022-12-31T19:45:16;31.67;;;6.27;;
11034;SDS011;5571;48.110;-1.706;2022-12-31T19:47:53;26.77;;;6.03;;
11034;SDS011;5571;48.110;-1.706;2022-12-31T19:50:20;30.20;;;6.67;;
11034;SDS011;5571;48.110;-1.706;2022-12-31T19:52:49;27.83;;;6.20;;
11034;SDS011;5571;48.110;-1.706;2022-12-31T19:55:16;30.07;;;5.83;;